Time;durP1;ratioP1;P1;durP2;ratioP2;P2;SDS_P1;SDS_P2;PMS_P1;PMS_P2;Temp;Humidity;BMP_temperature;BMP_pressure;BME280_temperature;BME280_humidity;BME280_pressure;Samples;Min_cycle;Max_cycle;Signal;HPM_P1;HPM_P2
2022/03/05 00:00:37;;;;;;;45.80;26.27;;;;;;;7.95;60.68;100773.09;4995962;28;20058;-80
2022/03/05 00:03:04;;;;;;;45.60;24.67;;;;;;;7.94;60.86;100763.31;4998087;28;20057;-81
2022/03/05 00:05:29;;;;;;;41.35;22.73;;;;;;;7.98;61.36;100776.38;4996400;28;20463;-80
2022/03/05 00:07:55;;;;;;;40.53;24.90;;;;;;;8.01;61.61;100770.00;4995807;28;20064;-80
2022/03/05 00:10:21;;;;;;;48.03;25.83;;;;;;;8.05;60.97;100774.16;4990171;28;20045;-78
2022/03/05 00:12:48;;;;;;;46.53;24.83;;;;;;;8.04;61.38;100767.09;4989805;28;20038;-81
2022/03/05 00:15:14;;;;;;;46.83;25.02;;;;;;;8.08;61.28;100766.78;4984159;28;20030;-81
2022/03/05 00:17:40;;;;;;;50.42;27.98;;;;;;;8.09;61.91;100776.53;4976255;28;20030;-80
2022/03/05 00:20:06;;;;;;;36.38;24.52;;;;;;;8.06;61.62;100757.13;4976216;28;20379;-80
2022/03/05 00:22:32;;;;;;;49.50;26.27;;;;;;;8.09;61.24;100759.59;4989947;28;20061;-83
2022/03/05 00:24:58;;;;;;;40.33;24.60;;;;;;;8.06;61.28;100758.00;4996101;28;20045;-80
2022/03/05 00:27:23;;;;;;;40.92;24.08;;;;;;;8.10;61.01;100758.63;4994601;28;20027;-80
2022/03/05 00:29:50;;;;;;;45.20;22.70;;;;;;;8.12;61.49;100752.22;4995758;28;20034;-80
2022/03/05 00:32:15;;;;;;;40.13;24.20;;;;;;;8.18;61.52;100757.13;4993409;28;20034;-82
2022/03/05 00:34:41;;;;;;;50.80;23.30;;;;;;;8.19;61.48;100758.00;4993443;28;20034;-81
2022/03/05 00:37:08;;;;;;;47.63;24.58;;;;;;;8.16;61.94;100759.06;4992684;28;20030;-80
2022/03/05 00:39:34;;;;;;;44.00;23.83;;;;;;;8.14;61.64;100755.63;4995654;28;20056;-81
2022/03/05 00:41:59;;;;;;;42.40;23.30;;;;;;;8.16;61.84;100752.84;4995896;28;20109;-80
2022/03/05 00:44:25;;;;;;;45.42;22.73;;;;;;;8.18;61.41;100745.56;4995571;28;20041;-80
2022/03/05 00:46:50;;;;;;;43.30;22.35;;;;;;;8.13;61.74;100753.06;4995282;28;20429;-81
2022/03/05 00:49:15;;;;;;;45.67;22.58;;;;;;;8.09;61.81;100746.19;4994999;28;20054;-81
2022/03/05 00:51:41;;;;;;;31.73;21.05;;;;;;;8.07;62.01;100742.78;4995293;28;20034;-81
2022/03/05 00:54:06;;;;;;;31.50;21.67;;;;;;;7.98;62.35;100735.38;4995687;28;20034;-80
2022/03/05 00:56:32;;;;;;;33.30;21.70;;;;;;;8.03;62.32;100741.28;4995939;28;20039;-80
2022/03/05 00:58:57;;;;;;;40.00;22.27;;;;;;;7.96;62.65;100746.19;4984282;28;20019;-80
2022/03/05 01:01:23;;;;;;;34.42;22.42;;;;;;;7.95;62.75;100749.00;4982976;28;20480;-81
2022/03/05 01:03:48;;;;;;;45.78;24.20;;;;;;;7.88;63.00;100737.84;4993986;28;20049;-80
2022/03/05 01:06:14;;;;;;;38.22;23.00;;;;;;;7.98;63.10;100748.78;4994415;28;20030;-80
2022/03/05 01:08:39;;;;;;;38.72;25.15;;;;;;;7.95;63.48;100743.63;4994819;28;20106;-81
2022/03/05 01:11:05;;;;;;;34.90;23.30;;;;;;;7.91;63.00;100744.78;4987447;28;20029;-78
2022/03/05 01:13:31;;;;;;;44.33;25.63;;;;;;;7.87;63.52;100749.50;4982343;28;20144;-77
2022/03/05 01:15:56;;;;;;;46.03;24.23;;;;;;;7.89;63.59;100747.56;4993250;28;20030;-76
2022/03/05 01:18:22;;;;;;;48.03;24.55;;;;;;;7.89;63.41;100744.06;4993153;28;20022;-76
2022/03/05 01:20:48;;;;;;;34.13;22.38;;;;;;;7.93;63.27;100750.88;4976410;28;20037;-78
2022/03/05 01:23:13;;;;;;;43.13;23.65;;;;;;;7.90;63.36;100746.59;4973575;28;20037;-77
2022/03/05 01:25:39;;;;;;;35.80;22.77;;;;;;;7.86;63.06;100742.41;4973649;28;20062;-76
2022/03/05 01:28:04;;;;;;;87.97;43.60;;;;;;;7.81;63.28;100741.88;4977879;28;20034;-76
2022/03/05 01:30:30;;;;;;;49.17;26.55;;;;;;;7.83;62.84;100752.50;4991342;28;20023;-77
2022/03/05 01:32:56;;;;;;;50.05;23.83;;;;;;;7.74;62.95;100739.72;4974437;28;20039;-76
2022/03/05 01:35:22;;;;;;;40.50;24.60;;;;;;;7.65;63.47;100738.53;4987415;28;20026;-77
2022/03/05 01:37:47;;;;;;;40.13;22.38;;;;;;;7.63;63.23;100727.94;4973483;28;20034;-77
2022/03/05 01:40:13;;;;;;;39.38;22.90;;;;;;;7.62;63.72;100734.22;4973263;28;20085;-77
2022/03/05 01:42:38;;;;;;;38.45;21.98;;;;;;;7.63;63.37;100748.47;4976758;28;20041;-76
2022/03/05 01:45:04;;;;;;;39.55;21.02;;;;;;;7.67;64.09;100745.47;4973426;28;20046;-77
2022/03/05 01:47:30;;;;;;;36.42;22.45;;;;;;;7.73;63.85;100748.72;4973219;28;20046;-76
2022/03/05 01:49:55;;;;;;;41.10;22.10;;;;;;;7.73;63.55;100743.38;4973094;28;20051;-76
2022/03/05 01:52:21;;;;;;;36.00;21.73;;;;;;;7.79;63.94;100737.59;4973117;28;20037;-77
2022/03/05 01:54:47;;;;;;;31.77;21.48;;;;;;;7.84;63.39;100747.03;4973134;28;20042;-76
2022/03/05 01:57:12;;;;;;;29.08;19.45;;;;;;;7.95;63.96;100749.00;4974349;28;20030;-76
2022/03/05 01:59:38;;;;;;;29.90;20.05;;;;;;;7.97;64.45;100741.69;4973530;28;20497;-77
2022/03/05 02:02:04;;;;;;;31.65;19.85;;;;;;;8.06;64.99;100747.28;4982883;28;20101;-75
2022/03/05 02:04:30;;;;;;;29.55;20.05;;;;;;;8.12;65.18;100735.28;4974430;28;20054;-77
2022/03/05 02:06:55;;;;;;;34.90;19.92;;;;;;;8.18;65.18;100738.38;4988428;28;20058;-76
2022/03/05 02:09:21;;;;;;;26.90;19.00;;;;;;;8.23;64.81;100732.69;4991650;28;20028;-75
2022/03/05 02:11:47;;;;;;;35.75;20.73;;;;;;;8.16;64.99;100731.44;4985092;28;20028;-76
2022/03/05 02:14:17;;;;;;;29.50;21.25;;;;;;;8.24;65.64;100747.81;4978226;28;20022;-76
2022/03/05 02:16:43;;;;;;;28.45;19.75;;;;;;;8.22;66.35;100737.19;4992377;28;20022;-76
2022/03/05 02:19:09;;;;;;;32.67;19.52;;;;;;;8.23;66.00;100741.59;4989892;28;20156;-76
2022/03/05 02:21:36;;;;;;;34.25;20.88;;;;;;;8.22;66.44;100741.72;4972596;28;20030;-76
2022/03/05 02:24:02;;;;;;;33.05;20.70;;;;;;;8.32;65.97;100747.31;4976325;28;20022;-77
2022/03/05 02:26:28;;;;;;;28.50;19.48;;;;;;;8.37;65.64;100732.63;4990230;28;20076;-76
2022/03/05 02:28:53;;;;;;;32.65;19.40;;;;;;;8.39;65.09;100728.00;4992003;28;20473;-77
2022/03/05 02:31:19;;;;;;;31.92;20.40;;;;;;;8.40;65.13;100740.47;4989577;28;20126;-76
2022/03/05 02:33:45;;;;;;;38.85;20.73;;;;;;;8.45;65.01;100732.94;4992054;28;20054;-76
2022/03/05 02:36:11;;;;;;;27.65;20.65;;;;;;;8.46;64.76;100739.16;4983364;28;20036;-76
2022/03/05 02:38:37;;;;;;;26.50;19.00;;;;;;;8.49;64.83;100750.53;4973757;28;20169;-76
2022/03/05 02:41:03;;;;;;;34.78;19.42;;;;;;;8.45;64.93;100738.31;4976220;28;20066;-76
2022/03/05 02:43:28;;;;;;;34.28;19.70;;;;;;;8.50;64.80;100752.22;4988182;28;20026;-75
2022/03/05 02:45:54;;;;;;;31.75;21.85;;;;;;;8.40;64.87;100755.69;4993573;28;20034;-75
2022/03/05 02:48:21;;;;;;;34.20;22.35;;;;;;;8.40;64.76;100753.84;4979062;28;20053;-77
2022/03/05 02:50:48;;;;;;;40.40;24.58;;;;;;;8.34;64.60;100751.59;4976140;28;20031;-77
2022/03/05 02:53:15;;;;;;;59.60;31.63;;;;;;;8.08;64.71;100757.88;4976316;28;20037;-75
2022/03/05 02:55:41;;;;;;;83.82;45.22;;;;;;;7.96;64.24;100748.00;4975070;28;20027;-76
2022/03/05 02:58:07;;;;;;;79.25;45.40;;;;;;;7.88;65.12;100753.03;4977320;28;20448;-76
2022/03/05 03:00:32;;;;;;;75.10;41.42;;;;;;;7.81;65.27;100757.09;4987625;28;20049;-76
2022/03/05 03:02:58;;;;;;;57.45;31.85;;;;;;;7.89;65.50;100766.31;4979744;28;20173;-76
2022/03/05 03:05:24;;;;;;;48.80;29.55;;;;;;;7.96;66.44;100758.72;4976347;28;20033;-76
2022/03/05 03:07:49;;;;;;;38.63;25.75;;;;;;;8.00;67.04;100747.69;4978345;28;20081;-76
2022/03/05 03:10:16;;;;;;;31.92;20.85;;;;;;;7.95;67.11;100760.53;4982945;28;20046;-77
2022/03/05 03:12:43;;;;;;;29.50;19.75;;;;;;;7.99;67.97;100753.16;4976705;28;20401;-76
2022/03/05 03:15:10;;;;;;;34.90;21.63;;;;;;;8.06;68.45;100757.13;4985964;28;20433;-77
2022/03/05 03:17:40;;;;;;;34.92;21.08;;;;;;;8.03;68.72;100758.19;4993857;28;20106;-78
2022/03/05 03:20:07;;;;;;;31.30;22.23;;;;;;;8.08;68.83;100756.06;4982593;28;20427;-75
2022/03/05 03:22:32;;;;;;;34.60;21.40;;;;;;;8.09;68.88;100757.78;4994992;28;20037;-76
2022/03/05 03:24:58;;;;;;;30.08;21.33;;;;;;;8.04;69.32;100753.72;4993188;28;20451;-76
2022/03/05 03:27:23;;;;;;;29.30;20.77;;;;;;;8.03;68.97;100768.06;4978797;28;20112;-78
2022/03/05 03:29:49;;;;;;;34.30;21.67;;;;;;;8.04;69.35;100767.94;4994457;28;20040;-76
2022/03/05 03:32:14;;;;;;;31.63;21.48;;;;;;;7.96;68.71;100762.25;4979492;28;20116;-77
2022/03/05 03:34:40;;;;;;;33.15;21.02;;;;;;;8.01;69.50;100770.00;4975445;28;20043;-77
2022/03/05 03:37:05;;;;;;;32.92;21.52;;;;;;;8.07;69.18;100770.41;4986509;28;20464;-76
2022/03/05 03:39:30;;;;;;;31.15;21.77;;;;;;;7.99;69.08;100758.50;4988404;28;20058;-79
2022/03/05 03:41:56;;;;;;;33.13;20.42;;;;;;;8.07;69.01;100769.56;4985361;28;20045;-77
2022/03/05 03:44:21;;;;;;;32.45;22.77;;;;;;;8.04;69.21;100759.06;4988707;28;20027;-76
2022/03/05 03:46:47;;;;;;;31.05;21.90;;;;;;;8.03;68.93;100768.06;4984454;28;20038;-77
2022/03/05 03:49:12;;;;;;;31.40;21.73;;;;;;;8.11;68.38;100779.09;4993231;28;20038;-76
2022/03/05 03:51:38;;;;;;;35.08;22.73;;;;;;;8.21;68.35;100777.50;4985165;28;20118;-76
2022/03/05 03:54:03;;;;;;;32.20;21.52;;;;;;;8.15;67.97;100784.16;4974180;28;20042;-77
2022/03/05 03:56:29;;;;;;;27.60;20.50;;;;;;;8.15;68.02;100781.47;4975175;28;20474;-76
2022/03/05 03:58:54;;;;;;;32.00;22.00;;;;;;;8.10;67.77;100778.22;4978529;28;20031;-76
2022/03/05 04:01:20;;;;;;;37.85;23.90;;;;;;;8.19;67.74;100790.97;4987588;28;20026;-77
2022/03/05 04:03:45;;;;;;;32.03;21.85;;;;;;;8.22;67.55;100789.94;4989632;28;20040;-75
2022/03/05 04:06:11;;;;;;;32.80;20.77;;;;;;;8.18;67.32;100799.16;4994575;28;20049;-76
2022/03/05 04:08:42;;;;;;;32.33;20.83;;;;;;;8.09;67.30;100789.06;4994724;28;20045;-75
2022/03/05 04:11:11;;;;;;;30.52;21.65;;;;;;;8.12;67.39;100802.25;4986935;28;20028;-76
2022/03/05 04:13:37;;;;;;;27.45;20.55;;;;;;;8.04;67.43;100796.56;4986468;28;20035;-76
2022/03/05 04:16:03;;;;;;;34.05;21.98;;;;;;;8.08;67.05;100803.41;4975301;28;20025;-76
2022/03/05 04:18:29;;;;;;;26.92;20.70;;;;;;;7.99;66.90;100810.25;4978099;28;20069;-76
2022/03/05 04:20:54;;;;;;;28.60;20.35;;;;;;;8.05;67.38;100815.19;4977466;28;20445;-76
2022/03/05 04:23:20;;;;;;;27.08;20.13;;;;;;;8.10;66.99;100814.91;4982221;28;20105;-76
2022/03/05 04:25:45;;;;;;;33.67;22.27;;;;;;;8.11;66.32;100824.63;4974590;28;20027;-76
2022/03/05 04:28:10;;;;;;;34.85;25.23;;;;;;;8.05;66.41;100822.38;4974654;28;20418;-76
2022/03/05 04:30:36;;;;;;;47.78;28.98;;;;;;;8.02;66.11;100811.84;4991249;28;20037;-76
2022/03/05 04:33:02;;;;;;;73.47;42.00;;;;;;;7.96;65.49;100831.03;4991908;28;20034;-77
2022/03/05 04:35:27;;;;;;;65.97;38.90;;;;;;;7.64;65.18;100820.63;4989880;28;20023;-76
2022/03/05 04:37:53;;;;;;;80.82;46.88;;;;;;;7.53;65.84;100822.31;4991577;28;20030;-77
2022/03/05 04:40:19;;;;;;;78.57;46.95;;;;;;;7.55;65.80;100833.78;4982487;28;20059;-76
2022/03/05 04:42:44;;;;;;;87.40;45.25;;;;;;;7.39;66.38;100831.25;4978479;28;20034;-76
2022/03/05 04:45:10;;;;;;;85.43;49.45;;;;;;;6.91;66.97;100839.75;4974644;28;20029;-77
2022/03/05 04:47:37;;;;;;;98.90;52.53;;;;;;;6.99;67.45;100845.44;4987334;28;20038;-77
2022/03/05 04:50:07;;;;;;;101.72;56.25;;;;;;;6.94;67.59;100850.25;4993453;28;20042;-75
2022/03/05 04:52:32;;;;;;;107.20;58.35;;;;;;;6.92;67.35;100857.47;4977066;28;20030;-75
2022/03/05 04:54:58;;;;;;;103.35;57.83;;;;;;;6.85;67.32;100857.00;4972545;28;20023;-76
2022/03/05 04:57:24;;;;;;;97.40;54.42;;;;;;;6.62;68.01;100849.56;4975006;28;20117;-75
2022/03/05 04:59:51;;;;;;;95.15;58.80;;;;;;;6.61;68.56;100844.28;4973905;28;20034;-76
2022/03/05 05:02:16;;;;;;;99.22;56.67;;;;;;;6.63;68.68;100853.09;4984284;28;20425;-76
2022/03/05 05:04:42;;;;;;;84.95;53.10;;;;;;;6.68;68.31;100853.66;4993059;28;20033;-76
2022/03/05 05:07:07;;;;;;;63.83;39.85;;;;;;;6.77;69.14;100850.41;4990096;28;20039;-76
2022/03/05 05:09:33;;;;;;;45.10;29.02;;;;;;;6.73;69.81;100852.41;4989373;28;20097;-77
2022/03/05 05:11:58;;;;;;;39.40;27.63;;;;;;;6.77;70.29;100845.06;4989245;28;20041;-76
2022/03/05 05:14:24;;;;;;;70.53;42.58;;;;;;;6.86;70.19;100844.50;4991222;28;20029;-76
2022/03/05 05:16:49;;;;;;;49.17;30.20;;;;;;;6.99;70.18;100845.44;4991547;28;20025;-77
2022/03/05 05:19:24;;;;;;;36.20;24.95;;;;;;;7.12;70.15;100857.09;4986020;28;20022;-76
2022/03/05 05:21:50;;;;;;;34.75;23.25;;;;;;;7.18;69.83;100862.06;4973493;28;20030;-76
2022/03/05 05:24:15;;;;;;;36.00;25.10;;;;;;;7.28;69.51;100865.84;4987971;28;20110;-76
2022/03/05 05:26:41;;;;;;;41.30;26.05;;;;;;;7.30;69.54;100860.41;4985911;28;20085;-76
2022/03/05 05:29:06;;;;;;;43.38;26.20;;;;;;;7.33;69.69;100853.06;4987245;28;20033;-76
2022/03/05 05:31:32;;;;;;;41.47;26.63;;;;;;;7.45;69.12;100868.31;4982942;28;20109;-76
2022/03/05 05:33:58;;;;;;;33.92;24.13;;;;;;;7.47;68.99;100866.38;4973175;28;20060;-77
2022/03/05 05:36:23;;;;;;;49.88;32.28;;;;;;;7.55;68.75;100873.94;4978894;28;20056;-77
2022/03/05 05:38:49;;;;;;;67.38;41.60;;;;;;;7.44;67.91;100871.06;4978013;28;20470;-77
2022/03/05 05:41:16;;;;;;;71.65;45.38;;;;;;;7.40;67.21;100883.78;4978810;28;20029;-76
2022/03/05 05:43:42;;;;;;;91.97;50.00;;;;;;;7.23;67.38;100872.44;4980344;28;20053;-76
2022/03/05 05:46:07;;;;;;;81.45;49.55;;;;;;;7.21;67.63;100880.59;4974947;28;20027;-77
2022/03/05 05:48:33;;;;;;;81.22;48.75;;;;;;;7.25;67.02;100886.59;4990991;28;20050;-76
2022/03/05 05:50:58;;;;;;;95.10;52.65;;;;;;;7.22;67.31;100876.94;4992276;28;20523;-75
2022/03/05 05:53:25;;;;;;;77.57;51.40;;;;;;;7.31;66.79;100891.56;4974783;28;20078;-77
2022/03/05 05:55:53;;;;;;;87.50;52.53;;;;;;;7.36;66.84;100901.03;4974583;28;20101;-76
2022/03/05 05:58:22;;;;;;;86.28;54.25;;;;;;;7.31;66.94;100896.91;4992365;28;20026;-76
2022/03/05 06:00:48;;;;;;;99.13;55.95;;;;;;;7.29;66.82;100902.34;4980967;28;20138;-76
2022/03/05 06:03:14;;;;;;;113.18;59.28;;;;;;;7.25;67.08;100895.47;4985709;28;20470;-76
2022/03/05 06:05:40;;;;;;;100.40;61.22;;;;;;;7.32;67.63;100910.19;4990869;28;20061;-77
2022/03/05 06:08:05;;;;;;;143.75;82.45;;;;;;;7.46;67.21;100920.03;4989647;28;20046;-77
2022/03/05 06:10:31;;;;;;;104.57;57.60;;;;;;;7.47;67.33;100917.22;4990142;28;20018;-76
2022/03/05 06:12:56;;;;;;;111.05;61.78;;;;;;;7.57;67.29;100925.53;4990128;28;20558;-75
2022/03/05 06:15:22;;;;;;;123.75;68.10;;;;;;;7.72;67.42;100923.69;4987178;28;20106;-75
2022/03/05 06:17:48;;;;;;;114.78;65.30;;;;;;;7.83;67.16;100921.19;4992889;28;20026;-75
2022/03/05 06:20:13;;;;;;;99.07;62.15;;;;;;;7.95;66.94;100923.06;4993867;28;20033;-77
2022/03/05 06:22:39;;;;;;;107.35;63.38;;;;;;;8.03;66.45;100923.41;4991093;28;20046;-77
2022/03/05 06:25:05;;;;;;;115.32;63.10;;;;;;;8.08;65.89;100915.91;4993101;28;20430;-76
2022/03/05 06:27:31;;;;;;;107.10;65.43;;;;;;;8.21;65.63;100912.31;4993094;28;20489;-78
2022/03/05 06:29:57;;;;;;;110.82;62.53;;;;;;;8.29;65.64;100919.88;4995424;28;20029;-77
2022/03/05 06:32:22;;;;;;;119.18;64.90;;;;;;;8.38;65.03;100929.97;4987500;28;20030;-76
2022/03/05 06:34:48;;;;;;;79.90;48.65;;;;;;;8.37;64.94;100919.38;4975666;28;20038;-75
2022/03/05 06:37:14;;;;;;;86.85;53.53;;;;;;;8.40;65.02;100928.06;4977698;28;20030;-76
2022/03/05 06:39:40;;;;;;;68.18;37.42;;;;;;;8.44;65.07;100926.88;4977192;28;20428;-75
2022/03/05 06:42:06;;;;;;;48.60;27.48;;;;;;;8.43;65.24;100921.63;4991419;28;20110;-76
2022/03/05 06:44:31;;;;;;;47.97;24.77;;;;;;;8.46;65.37;100927.66;4976277;28;20031;-77
2022/03/05 06:46:58;;;;;;;35.75;23.15;;;;;;;8.56;65.52;100930.56;4990931;28;20138;-77
2022/03/05 06:49:24;;;;;;;43.90;23.60;;;;;;;8.42;65.48;100926.13;4996314;28;20038;-77
2022/03/05 06:51:49;;;;;;;35.08;22.05;;;;;;;8.52;64.68;100921.00;4992152;28;20461;-77
2022/03/05 06:54:15;;;;;;;38.30;22.17;;;;;;;8.60;64.76;100924.88;4991456;28;20022;-77
2022/03/05 06:56:41;;;;;;;46.35;23.63;;;;;;;8.70;64.33;100931.31;4988750;28;20041;-78
2022/03/05 06:59:06;;;;;;;76.28;23.45;;;;;;;8.89;64.02;100932.72;4985133;28;20061;-78
2022/03/05 07:01:32;;;;;;;55.05;23.83;;;;;;;8.91;63.53;100941.53;4976749;28;20027;-76
2022/03/05 07:03:57;;;;;;;40.63;22.25;;;;;;;8.95;62.79;100926.94;4993682;28;20035;-77
2022/03/05 07:06:23;;;;;;;42.60;21.63;;;;;;;8.88;63.11;100937.22;4993828;28;20030;-75
2022/03/05 07:08:48;;;;;;;30.98;20.85;;;;;;;8.86;62.53;100935.63;4986467;28;20038;-76
2022/03/05 07:11:14;;;;;;;62.17;24.02;;;;;;;8.91;62.87;100934.34;4995899;28;20089;-77
2022/03/05 07:13:40;;;;;;;56.03;21.90;;;;;;;8.97;62.45;100938.41;4995685;28;20058;-78
2022/03/05 07:16:05;;;;;;;52.45;22.63;;;;;;;8.90;62.48;100926.41;4995209;28;20167;-76
2022/03/05 07:18:31;;;;;;;45.67;22.55;;;;;;;8.98;62.23;100929.41;4988748;28;20049;-78
2022/03/05 07:20:59;;;;;;;42.20;20.50;;;;;;;8.88;62.54;100937.22;4986917;28;20030;-77
2022/03/05 07:23:25;;;;;;;29.38;19.13;;;;;;;8.99;62.22;100936.50;4994979;28;20027;-78
2022/03/05 07:25:51;;;;;;;66.47;22.40;;;;;;;8.96;62.55;100934.03;4975538;28;20114;-76
2022/03/05 07:28:19;;;;;;;33.20;20.50;;;;;;;9.10;62.39;100940.16;4976035;28;20069;-82
2022/03/05 07:30:45;;;;;;;44.53;20.40;;;;;;;9.01;61.68;100923.81;4991997;28;20031;-77
2022/03/05 07:33:11;;;;;;;38.65;21.40;;;;;;;8.99;62.23;100941.88;4984401;28;20481;-79
2022/03/05 07:35:37;;;;;;;30.90;19.60;;;;;;;9.00;62.59;100924.78;4975544;28;20031;-76
2022/03/05 07:38:02;;;;;;;39.67;20.65;;;;;;;9.19;62.02;100938.63;4975828;28;20057;-77
2022/03/05 07:40:28;;;;;;;58.67;23.85;;;;;;;9.16;62.24;100946.91;4975692;28;20049;-78
2022/03/05 07:42:54;;;;;;;36.25;21.63;;;;;;;9.16;62.08;100952.25;4983077;28;20879;-76
2022/03/05 07:45:19;;;;;;;56.78;20.27;;;;;;;9.15;61.78;100955.91;4994133;28;20034;-76
2022/03/05 07:47:45;;;;;;;41.95;19.13;;;;;;;9.21;61.53;100950.97;4992948;28;20034;-77
2022/03/05 07:50:11;;;;;;;39.75;20.67;;;;;;;9.21;61.85;100952.78;4993158;28;20038;-76
2022/03/05 07:52:36;;;;;;;37.38;20.05;;;;;;;9.36;61.58;100956.25;4994490;28;20030;-77
2022/03/05 07:55:02;;;;;;;39.15;20.08;;;;;;;9.55;61.32;100960.16;4992219;28;20505;-77
2022/03/05 07:57:28;;;;;;;43.58;22.42;;;;;;;9.57;60.66;100950.16;4993840;28;20037;-77
2022/03/05 07:59:53;;;;;;;41.65;21.90;;;;;;;9.56;60.61;100953.84;4993915;28;20027;-75
2022/03/05 08:02:19;;;;;;;50.63;22.65;;;;;;;9.54;60.67;100961.13;4994041;28;20459;-76
2022/03/05 08:04:44;;;;;;;51.25;22.08;;;;;;;9.60;60.52;100959.84;4993856;28;20535;-75
2022/03/05 08:07:10;;;;;;;46.63;22.02;;;;;;;9.49;60.49;100952.56;4993722;28;20050;-77
2022/03/05 08:09:36;;;;;;;45.47;21.00;;;;;;;9.59;60.54;100964.34;4992397;28;20027;-76
2022/03/05 08:12:03;;;;;;;40.38;21.08;;;;;;;9.72;60.33;100959.78;4993864;28;20442;-76
2022/03/05 08:14:29;;;;;;;37.70;21.52;;;;;;;9.69;60.11;100957.34;4993598;28;20598;-77
2022/03/05 08:16:55;;;;;;;41.40;22.35;;;;;;;9.76;60.37;100966.66;4992425;28;20026;-76
2022/03/05 08:19:20;;;;;;;57.40;23.08;;;;;;;9.76;59.86;100972.03;4993719;28;20038;-78
2022/03/05 08:21:46;;;;;;;37.05;21.60;;;;;;;9.73;60.31;100972.25;4992314;28;20430;-76
2022/03/05 08:24:11;;;;;;;41.38;22.38;;;;;;;9.76;60.11;100961.28;4993420;28;20030;-77
2022/03/05 08:26:37;;;;;;;40.08;21.52;;;;;;;10.04;59.82;100964.66;4993370;28;20026;-77
2022/03/05 08:29:04;;;;;;;44.10;21.23;;;;;;;10.01;59.49;100973.78;4993214;28;20025;-77
2022/03/05 08:31:31;;;;;;;44.95;21.75;;;;;;;10.05;59.05;100969.06;4993535;28;20030;-76
2022/03/05 08:33:58;;;;;;;50.53;21.10;;;;;;;10.11;59.56;100973.97;4992275;28;20068;-77
2022/03/05 08:36:24;;;;;;;41.72;19.50;;;;;;;10.30;59.13;100971.69;4993220;28;20488;-76
2022/03/05 08:38:50;;;;;;;38.80;22.23;;;;;;;10.41;59.11;100969.03;4993207;28;20026;-75
2022/03/05 08:41:15;;;;;;;50.38;22.88;;;;;;;10.31;58.64;100974.25;4991045;28;20408;-76
2022/03/05 08:43:42;;;;;;;41.92;23.42;;;;;;;10.39;58.86;100981.75;4993219;28;20030;-76
2022/03/05 08:46:09;;;;;;;44.25;23.38;;;;;;;10.29;58.08;100964.59;4993651;28;20070;-78
2022/03/05 08:48:35;;;;;;;42.35;22.67;;;;;;;10.39;58.13;100976.38;4992997;28;20050;-79
2022/03/05 08:51:01;;;;;;;45.55;24.50;;;;;;;10.41;58.76;100970.88;4993066;28;20041;-77
2022/03/05 08:53:26;;;;;;;79.30;24.83;;;;;;;10.36;58.50;100965.84;4992788;28;20037;-77
2022/03/05 08:55:52;;;;;;;81.20;25.70;;;;;;;10.40;58.71;100969.16;4993027;28;20381;-76
2022/03/05 08:58:19;;;;;;;48.67;23.55;;;;;;;10.35;58.69;100966.81;4993054;28;20030;-76
2022/03/05 09:00:44;;;;;;;43.08;20.60;;;;;;;10.31;58.62;100973.38;4993023;28;20072;-77
2022/03/05 09:03:10;;;;;;;38.80;23.67;;;;;;;10.27;58.75;100988.03;4991701;28;20086;-77
2022/03/05 09:05:36;;;;;;;39.38;23.05;;;;;;;10.20;59.10;100976.03;4993019;28;20045;-78
2022/03/05 09:08:02;;;;;;;45.83;22.75;;;;;;;10.31;58.71;100982.31;4992757;28;20521;-77
2022/03/05 09:10:27;;;;;;;55.95;23.88;;;;;;;10.21;59.01;100980.44;4992398;28;20030;-78
2022/03/05 09:12:53;;;;;;;42.97;22.13;;;;;;;10.34;59.33;100978.53;4992537;28;20535;-76
2022/03/05 09:15:18;;;;;;;42.80;22.75;;;;;;;10.29;58.96;100984.25;4992706;28;20034;-76
2022/03/05 09:17:44;;;;;;;33.10;20.58;;;;;;;10.30;58.94;100983.28;4992776;28;20031;-77
2022/03/05 09:20:11;;;;;;;65.57;22.30;;;;;;;10.38;58.62;100983.56;4992454;28;20076;-77
2022/03/05 09:22:36;;;;;;;46.58;22.52;;;;;;;10.36;58.53;100984.66;4992608;28;20041;-77
2022/03/05 09:25:03;;;;;;;30.88;20.42;;;;;;;10.54;58.74;100991.34;4991278;28;20030;-77
2022/03/05 09:27:29;;;;;;;34.17;19.80;;;;;;;10.73;58.24;100986.28;4992373;28;20084;-77
2022/03/05 09:29:55;;;;;;;52.70;20.42;;;;;;;10.76;57.65;100980.66;4992440;28;20034;-77
2022/03/05 09:32:21;;;;;;;52.95;23.60;;;;;;;10.85;57.57;100989.88;4992484;28;20026;-77
2022/03/05 09:34:47;;;;;;;42.40;22.30;;;;;;;10.85;56.78;100985.34;4992299;28;20032;-77
2022/03/05 09:37:12;;;;;;;41.28;21.50;;;;;;;11.01;56.58;100994.94;4990759;28;20527;-77
2022/03/05 09:39:38;;;;;;;39.33;21.63;;;;;;;10.90;56.65;100979.59;4992435;28;20018;-77
2022/03/05 09:42:05;;;;;;;37.63;19.52;;;;;;;10.95;56.96;100990.88;4992586;28;20026;-77
2022/03/05 09:44:31;;;;;;;37.97;20.92;;;;;;;11.21;56.71;100991.53;4992379;28;20484;-75
2022/03/05 09:46:59;;;;;;;68.57;20.77;;;;;;;11.22;56.48;100993.28;4992225;28;20045;-77
2022/03/05 09:49:27;;;;;;;48.25;20.40;;;;;;;11.09;55.88;100985.28;4990574;28;20089;-77
2022/03/05 09:51:53;;;;;;;36.70;22.85;;;;;;;11.15;56.15;100992.03;4992244;28;20103;-77
2022/03/05 09:54:20;;;;;;;27.70;18.85;;;;;;;11.04;56.42;101002.78;4991692;28;20026;-77
2022/03/05 09:56:46;;;;;;;34.28;19.45;;;;;;;11.00;55.71;100995.91;4990591;28;20164;-77
2022/03/05 09:59:11;;;;;;;33.30;17.58;;;;;;;10.97;55.48;100988.94;4992190;28;20026;-77
2022/03/05 10:01:38;;;;;;;40.00;21.15;;;;;;;10.89;56.32;100996.72;4991931;28;20408;-77
2022/03/05 10:04:04;;;;;;;52.88;20.38;;;;;;;10.88;56.19;100990.50;4992011;28;20420;-77
2022/03/05 10:06:29;;;;;;;32.28;20.45;;;;;;;10.66;57.05;100987.72;4992411;28;20030;-77
2022/03/05 10:08:56;;;;;;;52.25;21.67;;;;;;;10.81;56.73;100983.00;4991957;28;20038;-78
2022/03/05 10:11:23;;;;;;;76.70;21.00;;;;;;;10.63;56.84;100996.03;4990599;28;20026;-76
2022/03/05 10:13:49;;;;;;;40.38;21.17;;;;;;;10.61;56.95;100989.06;4991693;28;20022;-77
2022/03/05 10:16:29;;;;;;;47.95;19.75;;;;;;;10.82;56.50;100980.19;4991681;28;20045;-76
2022/03/05 10:18:57;;;;;;;33.97;18.17;;;;;;;10.89;56.50;100976.06;4991925;28;20470;-77
2022/03/05 10:21:30;;;;;;;61.08;21.13;;;;;;;10.93;56.18;100988.31;4991904;28;20026;-76
2022/03/05 10:24:09;;;;;;;40.55;21.20;;;;;;;10.98;56.10;100979.88;4990545;28;20034;-76
2022/03/05 10:26:55;;;;;;;44.92;20.42;;;;;;;11.02;56.29;100986.72;4990468;28;20050;-76
2022/03/05 10:29:27;;;;;;;39.63;21.90;;;;;;;11.11;56.04;100987.84;4991452;28;20102;-77
2022/03/05 10:32:02;;;;;;;28.13;17.42;;;;;;;11.03;55.56;100990.28;4991284;28;20034;-76
2022/03/05 10:34:44;;;;;;;75.30;22.30;;;;;;;11.28;55.24;100984.72;4991600;28;20097;-76
2022/03/05 10:37:11;;;;;;;73.93;23.02;;;;;;;11.19;55.43;100977.34;4991278;28;20543;-76
2022/03/05 10:39:36;;;;;;;47.10;20.23;;;;;;;11.16;55.69;100980.28;4991413;28;20294;-79
2022/03/05 10:42:03;;;;;;;56.38;21.63;;;;;;;11.12;55.26;100982.34;4991521;28;20030;-77
2022/03/05 10:44:28;;;;;;;39.50;19.98;;;;;;;11.05;55.76;100967.66;4991331;28;20417;-77
2022/03/05 10:46:59;;;;;;;33.83;20.67;;;;;;;11.12;55.77;100981.50;4990160;28;20030;-78
2022/03/05 10:49:33;;;;;;;31.30;19.10;;;;;;;11.12;55.35;100981.50;4991341;28;20096;-77
2022/03/05 10:52:02;;;;;;;57.65;22.13;;;;;;;11.12;56.10;100992.25;4991532;28;20022;-78
2022/03/05 10:54:43;;;;;;;40.95;22.20;;;;;;;11.06;55.31;100982.84;4991253;28;20034;-77
2022/03/05 10:57:23;;;;;;;29.15;19.42;;;;;;;11.03;56.06;100987.59;4991439;28;20058;-77
2022/03/05 11:00:04;;;;;;;39.78;20.83;;;;;;;11.09;55.89;100979.03;4991395;28;20038;-78
2022/03/05 11:02:30;;;;;;;38.97;21.42;;;;;;;11.03;56.36;100977.69;4989232;28;20042;-78
2022/03/05 11:04:57;;;;;;;57.10;21.85;;;;;;;10.98;56.54;100979.88;4992443;28;20088;-77
2022/03/05 11:07:23;;;;;;;67.22;22.75;;;;;;;11.25;56.50;100985.78;4993871;28;20112;-77
2022/03/05 11:09:49;;;;;;;34.10;20.33;;;;;;;11.64;55.74;100984.47;4995134;28;20459;-77